createdAt,value
2024-01-10T00:00:01.568Z,103.90
2024-01-10T00:03:25.224Z,101.90
2024-01-10T00:06:34.742Z,103.00
2024-01-10T00:10:18.706Z,107.20
2024-01-10T00:13:02.036Z,105.30
2024-01-10T00:16:14.631Z,106.80
2024-01-10T00:19:59.600Z,111.60
2024-01-10T00:23:38.649Z,111.00
2024-01-10T00:27:26.311Z,115.40
2024-01-10T00:31:13.002Z,111.90
2024-01-10T00:34:35.344Z,115.70
2024-01-10T00:37:49.002Z,109.60
2024-01-10T00:41:00.338Z,105.60
2024-01-10T00:44:16.745Z,112.00
2024-01-10T00:47:00.584Z,107.20
2024-01-10T00:50:54.609Z,111.30
2024-01-10T00:54:32.604Z,103.40
2024-01-10T00:58:23.776Z,100.70
2024-01-10T01:01:43.615Z,103.20
2024-01-10T01:04:57.971Z,95.50
2024-01-10T01:08:47.084Z,97.60
2024-01-10T01:11:51.940Z,96.70
2024-01-10T01:14:53.181Z,94.80
2024-01-10T01:18:20.784Z,97.20
2024-01-10T01:21:58.959Z,98.70
2024-01-10T01:25:26.300Z,94.50
2024-01-10T01:28:54.766Z,96.40
2024-01-10T01:32:10.134Z,98.50
2024-01-10T01:35:24.940Z,98.30
2024-01-10T01:39:17.157Z,96.80
2024-01-10T01:42:32.035Z,102.10
2024-01-10T01:46:26.031Z,103.60
2024-01-10T01:49:24.021Z,101.40
2024-01-10T01:52:42.902Z,107.10
2024-01-10T01:56:12.315Z,111.50
2024-01-10T01:59:19.116Z,103.20
2024-01-10T02:03:08.101Z,103.60
2024-01-10T02:06:24.850Z,100.90
2024-01-10T02:09:50.946Z,97.70
2024-01-10T02:13:09.719Z,106.30
2024-01-10T02:16:38.126Z,106.30
2024-01-10T02:20:30.826Z,108.80
2024-01-10T02:23:48.828Z,109.50
2024-01-10T02:27:06.688Z,116.30
2024-01-10T02:30:21.429Z,114.90
2024-01-10T02:33:56.065Z,107.80
2024-01-10T02:37:22.282Z,106.90
2024-01-10T02:40:49.250Z,107.60
2024-01-10T02:44:23.288Z,108.60
2024-01-10T02:47:36.354Z,105.90
2024-01-10T02:50:55.617Z,105.80
2024-01-10T02:53:39.132Z,106.00
2024-01-10T02:57:01.210Z,104.10
2024-01-10T03:00:20.285Z,106.90
2024-01-10T03:06:27.894Z,100.90
2024-01-10T03:09:55.596Z,101.40
2024-01-10T03:12:54.461Z,100.20
2024-01-10T03:16:18.526Z,107.80
2024-01-10T03:19:26.998Z,105.90
2024-01-10T03:22:57.945Z,101.40
2024-01-10T03:25:50.820Z,98.20
2024-01-10T03:29:04.882Z,97.70
2024-01-10T03:32:42.252Z,101.60
2024-01-10T03:36:19.919Z,97.50
2024-01-10T03:39:32.329Z,95.90
2024-01-10T03:42:25.950Z,102.60
2024-01-10T03:45:42.831Z,95.40
2024-01-10T03:49:12.112Z,96.70
2024-01-10T03:52:46.033Z,97.30
2024-01-10T03:56:21.126Z,91.70
2024-01-10T04:00:00.006Z,97.00
2024-01-10T04:03:13.840Z,88.50
2024-01-10T04:06:24.460Z,88.20
2024-01-10T04:09:22.226Z,87.50
2024-01-10T04:12:57.788Z,82.40
2024-01-10T04:16:52.520Z,84.80
2024-01-10T04:20:30.680Z,88.70
2024-01-10T04:23:28.524Z,86.80
2024-01-10T04:26:52.224Z,82.80
2024-01-10T04:30:01.528Z,86.00
2024-01-10T04:33:37.039Z,80.40
2024-01-10T04:37:00.813Z,75.90
2024-01-10T04:40:04.968Z,80.00
2024-01-10T04:43:51.037Z,87.10
2024-01-10T04:47:28.952Z,85.60
2024-01-10T04:50:54.499Z,88.10
2024-01-10T04:54:20.468Z,82.10
2024-01-10T04:57:28.270Z,83.30
2024-01-10T05:01:21.091Z,83.70
2024-01-10T05:04:23.282Z,84.60
2024-01-10T05:08:27.469Z,82.50
2024-01-10T05:11:51.732Z,84.70
2024-01-10T05:15:18.604Z,82.90
2024-01-10T05:18:54.052Z,84.80
2024-01-10T05:22:36.351Z,84.50
2024-01-10T05:25:25.812Z,84.40
2024-01-10T05:28:58.248Z,82.00
2024-01-10T05:31:52.352Z,89.10
2024-01-10T05:35:25.802Z,80.40
2024-01-10T05:39:05.819Z,78.90
2024-01-10T05:42:48.366Z,85.10
2024-01-10T05:46:03.711Z,84.50
2024-01-10T05:49:34.604Z,81.50
2024-01-10T05:53:18.555Z,73.20
2024-01-10T06:00:11.188Z,72.60
2024-01-10T06:03:34.203Z,76.90
2024-01-10T06:06:47.795Z,76.00
2024-01-10T06:09:54.105Z,82.70
2024-01-10T06:16:27.704Z,81.60
2024-01-10T06:19:44.126Z,83.50
2024-01-10T06:23:33.610Z,85.50
2024-01-10T06:27:00.717Z,82.50
2024-01-10T06:30:54.767Z,85.00
2024-01-10T06:37:35.949Z,83.60
2024-01-10T06:40:46.105Z,81.30
2024-01-10T06:44:04.008Z,83.70
2024-01-10T06:47:42.694Z,78.10
2024-01-10T06:50:45.420Z,85.40
2024-01-10T06:54:19.591Z,87.10
2024-01-10T06:57:25.813Z,89.70
2024-01-10T07:01:01.894Z,84.80
2024-01-10T07:04:25.768Z,88.10
2024-01-10T07:07:59.050Z,84.80
2024-01-10T07:11:22.003Z,92.20
2024-01-10T07:14:20.878Z,86.30
2024-01-10T07:17:10.238Z,91.30
2024-01-10T07:20:25.622Z,87.90
2024-01-10T07:23:51.532Z,87.60
2024-01-10T07:27:26.963Z,89.40
2024-01-10T07:31:22.969Z,87.20
2024-01-10T07:34:54.875Z,91.70
2024-01-10T07:37:50.160Z,89.90
2024-01-10T07:41:13.920Z,88.70
2024-01-10T07:44:10.855Z,89.50
2024-01-10T07:47:17.654Z,88.40
2024-01-10T07:50:40.883Z,90.30
2024-01-10T07:53:55.315Z,92.80
2024-01-10T08:00:32.176Z,93.40
2024-01-10T08:03:35.455Z,99.90
2024-01-10T08:10:24.726Z,109.10
2024-01-10T08:13:52.853Z,114.00
2024-01-10T08:17:25.814Z,121.10
2024-01-10T08:21:04.398Z,125.90
2024-01-10T08:24:57.544Z,128.00
2024-01-10T08:28:31.861Z,125.40
2024-01-10T08:35:17.201Z,111.20
2024-01-10T08:38:09.277Z,120.60
2024-01-10T08:40:59.997Z,120.60
2024-01-10T08:43:43.188Z,128.30
2024-01-10T08:46:26.382Z,124.20
2024-01-10T08:50:00.359Z,122.50
2024-01-10T08:53:56.855Z,116.40
2024-01-10T08:57:19.541Z,118.90
2024-01-10T09:00:29.132Z,124.40
2024-01-10T09:03:18.562Z,121.40
2024-01-10T09:06:33.086Z,117.00
2024-01-10T09:09:36.806Z,123.90
2024-01-10T09:13:00.943Z,120.70
2024-01-10T09:16:13.373Z,113.80
2024-01-10T09:19:01.821Z,137.30
2024-01-10T09:21:47.951Z,133.10
2024-01-10T09:25:10.477Z,120.60
2024-01-10T09:28:20.044Z,113.90
2024-01-10T09:31:51.269Z,203.40
2024-01-10T09:34:50.808Z,140.60
2024-01-10T09:37:55.020Z,93.00
2024-01-10T09:41:17.239Z,73.20
2024-01-10T09:44:22.680Z,71.70
2024-01-10T09:47:46.288Z,68.40
2024-01-10T09:50:53.101Z,73.80
2024-01-10T09:54:05.624Z,70.10
2024-01-10T09:57:43.064Z,67.30
2024-01-10T10:01:06.737Z,79.20
2024-01-10T10:04:08.759Z,88.60
2024-01-10T10:07:26.160Z,89.80
2024-01-10T10:10:35.392Z,91.50
2024-01-10T10:14:10.428Z,91.20
2024-01-10T10:17:46.294Z,90.20
2024-01-10T10:21:50.526Z,90.80
2024-01-10T10:24:37.491Z,84.80
2024-01-10T10:27:57.550Z,88.20
2024-01-10T10:31:31.343Z,83.80
2024-01-10T10:37:44.293Z,79.10
2024-01-10T10:41:26.552Z,81.50
2024-01-10T10:44:22.470Z,126.30
2024-01-10T10:47:16.284Z,105.20
2024-01-10T10:50:34.084Z,81.50
2024-01-10T10:53:48.284Z,88.50
2024-01-10T10:56:39.921Z,87.90
2024-01-10T10:59:33.267Z,92.50
2024-01-10T11:02:32.562Z,87.80
2024-01-10T11:05:21.641Z,92.70
2024-01-10T11:08:27.198Z,95.90
2024-01-10T11:11:30.603Z,94.90
2024-01-10T11:19:21.945Z,90.30
2024-01-10T11:23:25.835Z,87.20
2024-01-10T11:26:22.645Z,92.40
2024-01-10T11:29:35.543Z,88.80
2024-01-10T11:32:26.181Z,91.50
2024-01-10T11:35:40.608Z,109.30
2024-01-10T11:39:05.300Z,94.60
2024-01-10T11:42:33.440Z,119.40
2024-01-10T11:46:25.016Z,92.50
2024-01-10T11:50:37.196Z,88.30
2024-01-10T11:53:58.592Z,84.00
2024-01-10T11:57:38.474Z,84.30
2024-01-10T12:00:33.781Z,86.90
2024-01-10T12:03:21.610Z,84.10
2024-01-10T12:06:42.648Z,89.60
2024-01-10T12:09:51.675Z,87.80
2024-01-10T12:13:25.073Z,88.90
2024-01-10T12:16:47.589Z,97.10
2024-01-10T12:19:51.176Z,80.40
2024-01-10T12:22:36.731Z,80.90
2024-01-10T12:25:32.759Z,75.50
2024-01-10T12:29:19.439Z,73.20
2024-01-10T12:32:58.856Z,77.90
2024-01-10T12:36:22.956Z,72.40
2024-01-10T12:39:59.307Z,74.40
2024-01-10T12:43:30.846Z,70.50
2024-01-10T12:46:37.075Z,65.30
2024-01-10T12:49:45.561Z,65.00
2024-01-10T12:52:59.881Z,66.60
2024-01-10T12:56:15.495Z,59.80
2024-01-10T12:59:10.862Z,59.60
2024-01-10T13:02:38.548Z,61.70
2024-01-10T13:06:25.847Z,58.90
2024-01-10T13:09:39.396Z,60.00
2024-01-10T13:12:56.374Z,58.10
2024-01-10T13:17:00.947Z,61.60
2024-01-10T13:23:09.331Z,61.20
2024-01-10T13:25:53.266Z,79.30
2024-01-10T13:29:28.034Z,61.00
2024-01-10T13:36:40.261Z,54.60
2024-01-10T13:40:16.226Z,58.00
2024-01-10T13:44:03.863Z,54.20
2024-01-10T13:47:23.550Z,54.50
2024-01-10T13:50:44.876Z,57.30
2024-01-10T13:53:51.292Z,59.00
2024-01-10T13:56:47.291Z,72.90
2024-01-10T14:00:30.496Z,80.10
2024-01-10T14:04:24.387Z,83.30
2024-01-10T14:07:57.889Z,62.20
2024-01-10T14:11:41.818Z,60.20
2024-01-10T14:15:23.538Z,57.70
2024-01-10T14:18:50.018Z,56.50
2024-01-10T14:22:36.027Z,50.50
2024-01-10T14:25:58.169Z,53.50
2024-01-10T14:29:55.101Z,58.90
2024-01-10T14:33:39.188Z,63.30
2024-01-10T14:37:22.546Z,51.10
2024-01-10T14:41:01.145Z,59.00
2024-01-10T14:44:58.807Z,68.50
2024-01-10T14:48:38.202Z,88.40
2024-01-10T14:52:26.572Z,80.70
2024-01-10T14:55:41.150Z,73.60
2024-01-10T14:59:36.606Z,68.00
2024-01-10T15:03:28.058Z,56.70
2024-01-10T15:07:02.658Z,54.50
2024-01-10T15:10:46.533Z,52.10
2024-01-10T15:14:44.439Z,53.80
2024-01-10T15:18:20.203Z,53.20
2024-01-10T15:22:16.518Z,55.90
2024-01-10T15:26:20.444Z,55.00
2024-01-10T15:29:59.524Z,54.50
2024-01-10T15:33:26.482Z,51.60
2024-01-10T15:37:09.077Z,68.30
2024-01-10T15:40:44.241Z,59.40
2024-01-10T15:44:29.256Z,54.50
2024-01-10T15:48:13.604Z,49.30
2024-01-10T15:51:57.616Z,50.10
2024-01-10T15:55:20.698Z,44.00
2024-01-10T15:59:04.348Z,43.90
2024-01-10T16:02:39.721Z,44.40
2024-01-10T16:05:53.450Z,46.10
2024-01-10T16:09:36.274Z,47.40
2024-01-10T16:12:50.577Z,42.80
2024-01-10T16:16:10.344Z,47.20
2024-01-10T16:20:07.318Z,43.40
2024-01-10T16:24:11.380Z,41.50
2024-01-10T16:27:44.649Z,45.40
2024-01-10T16:31:48.676Z,47.50
2024-01-10T16:34:52.585Z,44.60
2024-01-10T16:38:28.274Z,45.30
2024-01-10T16:42:32.193Z,40.90
2024-01-10T16:46:26.329Z,49.70
2024-01-10T16:49:52.823Z,47.40
2024-01-10T16:53:32.984Z,47.40
2024-01-10T16:57:29.251Z,49.00
2024-01-10T17:01:34.352Z,49.20
2024-01-10T17:05:27.519Z,48.00
2024-01-10T17:09:19.258Z,47.80
2024-01-10T17:12:23.865Z,61.30
2024-01-10T17:15:51.086Z,63.80
2024-01-10T17:18:58.373Z,62.70
2024-01-10T17:22:11.252Z,58.00
2024-01-10T17:25:55.046Z,59.50
2024-01-10T17:29:28.671Z,60.00
2024-01-10T17:33:12.751Z,77.90
2024-01-10T17:36:20.408Z,83.30
2024-01-10T17:39:20.122Z,84.40
2024-01-10T17:42:44.845Z,85.50
2024-01-10T17:46:37.517Z,96.90
2024-01-10T17:49:50.585Z,91.70
2024-01-10T17:53:07.664Z,88.50
2024-01-10T17:56:24.206Z,93.20
2024-01-10T17:59:54.743Z,93.30
2024-01-10T18:03:23.607Z,93.20
2024-01-10T18:06:30.082Z,89.50
2024-01-10T18:09:40.354Z,90.40
2024-01-10T18:12:47.105Z,93.90
2024-01-10T18:19:45.900Z,87.40
2024-01-10T18:22:37.906Z,89.90
2024-01-10T18:26:14.715Z,96.00
2024-01-10T18:29:23.823Z,88.20
2024-01-10T18:33:07.824Z,86.40
2024-01-10T18:36:34.408Z,102.20
2024-01-10T18:40:27.090Z,105.50
2024-01-10T18:43:28.905Z,105.60
2024-01-10T18:46:48.804Z,104.10
2024-01-10T18:50:10.321Z,108.90
2024-01-10T18:53:17.159Z,104.40
2024-01-10T18:56:26.072Z,95.90
2024-01-10T18:59:52.754Z,89.80
2024-01-10T19:03:26.979Z,99.90
2024-01-10T19:06:19.315Z,94.50
2024-01-10T19:09:05.461Z,93.00
2024-01-10T19:12:41.369Z,96.00
2024-01-10T19:16:04.314Z,96.40
2024-01-10T19:19:29.281Z,103.60
2024-01-10T19:23:23.300Z,100.90
2024-01-10T19:26:32.562Z,103.80
2024-01-10T19:30:08.595Z,104.80
2024-01-10T19:33:55.327Z,112.70
2024-01-10T19:37:59.452Z,113.40
2024-01-10T19:42:03.315Z,118.80
2024-01-10T19:45:51.356Z,106.80
2024-01-10T19:49:03.921Z,102.90
2024-01-10T19:52:18.961Z,108.80
2024-01-10T19:55:43.121Z,100.20
2024-01-10T19:59:17.243Z,102.60
2024-01-10T20:02:49.605Z,105.00
2024-01-10T20:06:09.678Z,101.00
2024-01-10T20:09:19.967Z,110.10
2024-01-10T20:12:23.665Z,108.00
2024-01-10T20:16:01.179Z,112.40
2024-01-10T20:19:47.856Z,95.20
2024-01-10T20:23:23.386Z,75.60
2024-01-10T20:26:20.114Z,70.80
2024-01-10T20:29:45.954Z,67.50
2024-01-10T20:33:29.926Z,84.40
2024-01-10T20:36:41.893Z,81.40
2024-01-10T20:39:40.443Z,82.80
2024-01-10T20:43:19.622Z,82.70
2024-01-10T20:46:59.123Z,81.40
2024-01-10T20:50:57.483Z,85.50
2024-01-10T20:54:01.243Z,86.50
2024-01-10T20:57:30.072Z,87.00
2024-01-10T21:00:42.721Z,85.40
2024-01-10T21:03:53.877Z,85.20
2024-01-10T21:07:08.718Z,77.40
2024-01-10T21:10:45.871Z,80.80
2024-01-10T21:14:13.325Z,79.30
2024-01-10T21:17:22.652Z,78.30
2024-01-10T21:21:06.317Z,76.10
2024-01-10T21:24:33.064Z,73.00
2024-01-10T21:28:09.935Z,77.90
2024-01-10T21:31:04.064Z,77.00
2024-01-10T21:34:30.977Z,76.60
2024-01-10T21:37:56.768Z,75.60
2024-01-10T21:41:20.593Z,358.50
2024-01-10T21:44:37.913Z,347.90
2024-01-10T21:47:34.314Z,290.70
2024-01-10T21:51:03.710Z,182.60
2024-01-10T21:54:41.194Z,105.60
2024-01-10T21:57:57.469Z,93.40
2024-01-10T22:01:24.123Z,80.90
2024-01-10T22:05:02.556Z,69.50
2024-01-10T22:08:08.724Z,62.30
2024-01-10T22:11:26.965Z,60.60
2024-01-10T22:14:48.852Z,54.70
2024-01-10T22:18:20.499Z,55.20
2024-01-10T22:21:57.178Z,49.80
2024-01-10T22:25:24.930Z,54.60
2024-01-10T22:29:28.839Z,52.20
2024-01-10T22:32:57.113Z,54.30
2024-01-10T22:36:41.091Z,46.90
2024-01-10T22:40:42.795Z,51.80
2024-01-10T22:44:47.937Z,42.80
2024-01-10T22:48:37.455Z,44.30
2024-01-10T22:52:01.684Z,36.40
2024-01-10T22:55:10.636Z,41.20
2024-01-10T22:59:14.721Z,36.00
2024-01-10T23:02:41.056Z,31.70
2024-01-10T23:06:14.221Z,31.30
2024-01-10T23:10:05.634Z,34.70
2024-01-10T23:13:49.582Z,27.50
2024-01-10T23:16:56.475Z,28.30
2024-01-10T23:20:24.408Z,26.40
2024-01-10T23:23:47.677Z,28.30
2024-01-10T23:27:28.262Z,23.00
2024-01-10T23:30:32.474Z,21.90
2024-01-10T23:33:50.517Z,22.60
2024-01-10T23:36:38.911Z,21.70
2024-01-10T23:40:03.914Z,21.30
2024-01-10T23:43:27.361Z,18.90
2024-01-10T23:47:09.653Z,20.20
2024-01-10T23:50:56.779Z,21.10
2024-01-10T23:54:13.823Z,18.90
2024-01-10T23:57:37.836Z,17.90
